sensor_id;sensor_type;location;lat;lon;timestamp;temperature;humidity
21563;DHT22;10942;47.894;11.424;2022-09-20T00:00:48;9.50;99.90
21563;DHT22;10942;47.894;11.424;2022-09-20T00:03:15;9.50;99.90
21563;DHT22;10942;47.894;11.424;2022-09-20T00:05:43;9.40;99.90
21563;DHT22;10942;47.894;11.424;2022-09-20T00:08:14;9.50;99.90
21563;DHT22;10942;47.894;11.424;2022-09-20T00:10:41;9.40;99.90
21563;DHT22;10942;47.894;11.424;2022-09-20T00:13:09;9.40;99.90
21563;DHT22;10942;47.894;11.424;2022-09-20T00:15:41;9.40;99.90
21563;DHT22;10942;47.894;11.424;2022-09-20T00:18:07;9.40;99.90
21563;DHT22;10942;47.894;11.424;2022-09-20T00:20:33;9.50;99.90
21563;DHT22;10942;47.894;11.424;2022-09-20T00:22:58;9.50;99.90
21563;DHT22;10942;47.894;11.424;2022-09-20T00:25:24;9.40;99.90
21563;DHT22;10942;47.894;11.424;2022-09-20T00:27:50;9.50;99.90
21563;DHT22;10942;47.894;11.424;2022-09-20T00:30:15;9.40;99.90
21563;DHT22;10942;47.894;11.424;2022-09-20T00:32:41;9.30;99.90
21563;DHT22;10942;47.894;11.424;2022-09-20T00:35:07;9.30;99.90
21563;DHT22;10942;47.894;11.424;2022-09-20T00:37:41;9.30;99.90
21563;DHT22;10942;47.894;11.424;2022-09-20T00:40:19;9.30;99.90
21563;DHT22;10942;47.894;11.424;2022-09-20T00:42:46;9.20;99.90
21563;DHT22;10942;47.894;11.424;2022-09-20T00:45:23;9.30;99.90
21563;DHT22;10942;47.894;11.424;2022-09-20T00:48:12;9.30;99.90
21563;DHT22;10942;47.894;11.424;2022-09-20T00:50:50;9.20;99.90
21563;DHT22;10942;47.894;11.424;2022-09-20T00:53:38;9.30;99.90
21563;DHT22;10942;47.894;11.424;2022-09-20T00:56:07;9.30;99.90
21563;DHT22;10942;47.894;11.424;2022-09-20T00:58:37;9.20;99.90
21563;DHT22;10942;47.894;11.424;2022-09-20T01:01:04;9.20;99.90
21563;DHT22;10942;47.894;11.424;2022-09-20T01:03:33;9.20;99.90
21563;DHT22;10942;47.894;11.424;2022-09-20T01:06:02;9.20;99.90
21563;DHT22;10942;47.894;11.424;2022-09-20T01:08:29;9.20;99.90
21563;DHT22;10942;47.894;11.424;2022-09-20T01:10:56;9.20;99.90
21563;DHT22;10942;47.894;11.424;2022-09-20T01:13:21;9.20;99.90
21563;DHT22;10942;47.894;11.424;2022-09-20T01:15:48;9.20;99.90
21563;DHT22;10942;47.894;11.424;2022-09-20T01:18:15;9.20;99.90
21563;DHT22;10942;47.894;11.424;2022-09-20T01:20:43;9.20;99.90
21563;DHT22;10942;47.894;11.424;2022-09-20T01:26:41;9.20;99.90
21563;DHT22;10942;47.894;11.424;2022-09-20T01:32:19;9.10;99.90
21563;DHT22;10942;47.894;11.424;2022-09-20T01:34:47;9.10;99.90
21563;DHT22;10942;47.894;11.424;2022-09-20T01:37:39;9.10;99.90
21563;DHT22;10942;47.894;11.424;2022-09-20T01:40:43;9.10;99.90
21563;DHT22;10942;47.894;11.424;2022-09-20T01:45:31;9.10;99.90
21563;DHT22;10942;47.894;11.424;2022-09-20T01:48:24;9.00;99.90
21563;DHT22;10942;47.894;11.424;2022-09-20T02:02:18;9.00;99.90
21563;DHT22;10942;47.894;11.424;2022-09-20T02:10:30;8.90;99.90
21563;DHT22;10942;47.894;11.424;2022-09-20T02:24:32;8.60;99.90
21563;DHT22;10942;47.894;11.424;2022-09-20T02:27:29;8.70;99.90
21563;DHT22;10942;47.894;11.424;2022-09-20T02:33:08;8.60;99.90
21563;DHT22;10942;47.894;11.424;2022-09-20T02:49:58;8.40;99.90
21563;DHT22;10942;47.894;11.424;2022-09-20T02:55:48;8.30;99.90
21563;DHT22;10942;47.894;11.424;2022-09-20T02:58:34;8.20;99.90
21563;DHT22;10942;47.894;11.424;2022-09-20T03:01:12;8.20;99.90
21563;DHT22;10942;47.894;11.424;2022-09-20T03:06:10;8.20;99.90
21563;DHT22;10942;47.894;11.424;2022-09-20T03:09:42;8.10;99.90
21563;DHT22;10942;47.894;11.424;2022-09-20T03:12:05;8.00;99.90
21563;DHT22;10942;47.894;11.424;2022-09-20T03:14:56;7.90;99.90
21563;DHT22;10942;47.894;11.424;2022-09-20T03:18:15;7.90;99.90
21563;DHT22;10942;47.894;11.424;2022-09-20T03:24:03;7.80;99.90
21563;DHT22;10942;47.894;11.424;2022-09-20T03:26:42;7.80;99.90
21563;DHT22;10942;47.894;11.424;2022-09-20T03:34:59;7.70;99.90
21563;DHT22;10942;47.894;11.424;2022-09-20T03:37:35;7.70;99.90
21563;DHT22;10942;47.894;11.424;2022-09-20T03:42:59;7.70;99.90
21563;DHT22;10942;47.894;11.424;2022-09-20T03:51:11;7.50;99.90
21563;DHT22;10942;47.894;11.424;2022-09-20T03:54:05;7.50;99.90
21563;DHT22;10942;47.894;11.424;2022-09-20T04:11:33;7.40;99.90
21563;DHT22;10942;47.894;11.424;2022-09-20T04:14:56;7.40;99.90
21563;DHT22;10942;47.894;11.424;2022-09-20T04:17:14;7.40;99.90
21563;DHT22;10942;47.894;11.424;2022-09-20T04:20:54;7.40;99.90
21563;DHT22;10942;47.894;11.424;2022-09-20T04:22:53;7.40;99.90
21563;DHT22;10942;47.894;11.424;2022-09-20T04:25:36;7.30;99.90
21563;DHT22;10942;47.894;11.424;2022-09-20T04:28:18;7.30;99.90
21563;DHT22;10942;47.894;11.424;2022-09-20T04:30:46;7.30;99.90
21563;DHT22;10942;47.894;11.424;2022-09-20T04:33:24;7.30;99.90
21563;DHT22;10942;47.894;11.424;2022-09-20T04:39:44;7.20;99.90
21563;DHT22;10942;47.894;11.424;2022-09-20T04:44:37;7.20;99.90
21563;DHT22;10942;47.894;11.424;2022-09-20T04:53:12;7.10;99.90
21563;DHT22;10942;47.894;11.424;2022-09-20T04:58:46;7.00;99.90
21563;DHT22;10942;47.894;11.424;2022-09-20T05:10:02;7.10;99.90
21563;DHT22;10942;47.894;11.424;2022-09-20T05:38:48;6.80;99.90
21563;DHT22;10942;47.894;11.424;2022-09-20T05:43:57;6.90;99.90
21563;DHT22;10942;47.894;11.424;2022-09-20T05:55:19;7.20;99.90
21563;DHT22;10942;47.894;11.424;2022-09-20T06:00:33;7.40;99.90
21563;DHT22;10942;47.894;11.424;2022-09-20T06:03:17;7.40;99.90
21563;DHT22;10942;47.894;11.424;2022-09-20T06:17:36;7.70;99.90
21563;DHT22;10942;47.894;11.424;2022-09-20T06:22:42;7.90;99.90
21563;DHT22;10942;47.894;11.424;2022-09-20T06:25:11;7.90;99.90
21563;DHT22;10942;47.894;11.424;2022-09-20T06:27:59;7.90;99.90
21563;DHT22;10942;47.894;11.424;2022-09-20T06:30:33;7.90;99.90
21563;DHT22;10942;47.894;11.424;2022-09-20T06:33:12;7.90;99.90
21563;DHT22;10942;47.894;11.424;2022-09-20T06:35:52;8.00;99.90
21563;DHT22;10942;47.894;11.424;2022-09-20T06:41:30;8.30;99.90
21563;DHT22;10942;47.894;11.424;2022-09-20T06:44:03;8.50;99.90
21563;DHT22;10942;47.894;11.424;2022-09-20T06:46:33;8.60;99.90
21563;DHT22;10942;47.894;11.424;2022-09-20T06:48:59;8.70;99.90
21563;DHT22;10942;47.894;11.424;2022-09-20T06:51:27;8.90;99.90
21563;DHT22;10942;47.894;11.424;2022-09-20T06:53:54;9.10;99.90
21563;DHT22;10942;47.894;11.424;2022-09-20T06:56:24;9.40;99.90
21563;DHT22;10942;47.894;11.424;2022-09-20T06:58:52;9.70;99.90
21563;DHT22;10942;47.894;11.424;2022-09-20T07:01:18;10.10;99.90
21563;DHT22;10942;47.894;11.424;2022-09-20T07:03:44;10.60;99.90
21563;DHT22;10942;47.894;11.424;2022-09-20T07:06:10;11.10;99.90
21563;DHT22;10942;47.894;11.424;2022-09-20T07:08:36;11.60;99.90
21563;DHT22;10942;47.894;11.424;2022-09-20T07:11:08;11.60;99.90
21563;DHT22;10942;47.894;11.424;2022-09-20T07:13:35;11.90;99.90
21563;DHT22;10942;47.894;11.424;2022-09-20T07:16:06;12.10;99.90
21563;DHT22;10942;47.894;11.424;2022-09-20T07:18:33;12.20;99.90
21563;DHT22;10942;47.894;11.424;2022-09-20T07:21:02;12.00;99.90
21563;DHT22;10942;47.894;11.424;2022-09-20T07:23:29;12.10;99.90
21563;DHT22;10942;47.894;11.424;2022-09-20T07:25:56;12.00;99.90
21563;DHT22;10942;47.894;11.424;2022-09-20T07:28:26;12.10;99.90
21563;DHT22;10942;47.894;11.424;2022-09-20T07:30:51;12.50;99.90
21563;DHT22;10942;47.894;11.424;2022-09-20T07:33:17;13.00;99.90
21563;DHT22;10942;47.894;11.424;2022-09-20T07:35:52;13.10;99.90
21563;DHT22;10942;47.894;11.424;2022-09-20T07:38:20;13.10;99.90
21563;DHT22;10942;47.894;11.424;2022-09-20T07:41:00;12.70;99.90
21563;DHT22;10942;47.894;11.424;2022-09-20T07:43:27;12.40;99.90
21563;DHT22;10942;47.894;11.424;2022-09-20T07:45:54;12.30;99.90
21563;DHT22;10942;47.894;11.424;2022-09-20T07:48:21;12.10;99.90
21563;DHT22;10942;47.894;11.424;2022-09-20T07:50:54;12.20;99.90
21563;DHT22;10942;47.894;11.424;2022-09-20T07:53:21;12.10;99.90
21563;DHT22;10942;47.894;11.424;2022-09-20T07:56:02;12.00;99.90
21563;DHT22;10942;47.894;11.424;2022-09-20T07:58:30;11.80;99.90
21563;DHT22;10942;47.894;11.424;2022-09-20T08:00:57;11.50;99.90
21563;DHT22;10942;47.894;11.424;2022-09-20T08:03:24;11.40;99.90
21563;DHT22;10942;47.894;11.424;2022-09-20T08:05:51;11.30;99.90
21563;DHT22;10942;47.894;11.424;2022-09-20T08:08:18;11.10;99.90
21563;DHT22;10942;47.894;11.424;2022-09-20T08:10:44;10.80;99.90
21563;DHT22;10942;47.894;11.424;2022-09-20T08:13:11;10.80;99.90
21563;DHT22;10942;47.894;11.424;2022-09-20T08:15:38;10.60;99.90
21563;DHT22;10942;47.894;11.424;2022-09-20T08:18:05;10.50;99.90
21563;DHT22;10942;47.894;11.424;2022-09-20T08:20:35;10.40;99.90
21563;DHT22;10942;47.894;11.424;2022-09-20T08:23:01;10.50;99.90
21563;DHT22;10942;47.894;11.424;2022-09-20T08:25:28;10.70;99.90
21563;DHT22;10942;47.894;11.424;2022-09-20T08:27:54;10.90;99.90
21563;DHT22;10942;47.894;11.424;2022-09-20T08:30:20;11.20;99.90
21563;DHT22;10942;47.894;11.424;2022-09-20T08:32:46;11.50;99.90
21563;DHT22;10942;47.894;11.424;2022-09-20T08:35:11;11.80;99.90
21563;DHT22;10942;47.894;11.424;2022-09-20T08:37:40;12.00;99.90
21563;DHT22;10942;47.894;11.424;2022-09-20T08:40:06;12.10;99.90
21563;DHT22;10942;47.894;11.424;2022-09-20T08:42:35;12.30;99.90
21563;DHT22;10942;47.894;11.424;2022-09-20T08:45:04;12.70;99.90
21563;DHT22;10942;47.894;11.424;2022-09-20T08:47:33;13.00;99.90
21563;DHT22;10942;47.894;11.424;2022-09-20T08:50:04;13.10;99.90
21563;DHT22;10942;47.894;11.424;2022-09-20T08:52:36;13.30;99.90
21563;DHT22;10942;47.894;11.424;2022-09-20T08:55:16;13.30;99.90
21563;DHT22;10942;47.894;11.424;2022-09-20T08:57:43;13.10;99.90
21563;DHT22;10942;47.894;11.424;2022-09-20T09:00:18;12.90;99.90
21563;DHT22;10942;47.894;11.424;2022-09-20T09:02:44;12.90;99.90
21563;DHT22;10942;47.894;11.424;2022-09-20T09:08:32;12.40;99.90
21563;DHT22;10942;47.894;11.424;2022-09-20T09:11:04;12.10;99.90
21563;DHT22;10942;47.894;11.424;2022-09-20T09:16:04;12.60;99.90
21563;DHT22;10942;47.894;11.424;2022-09-20T09:18:43;12.90;99.90
21563;DHT22;10942;47.894;11.424;2022-09-20T09:21:21;13.20;99.90
21563;DHT22;10942;47.894;11.424;2022-09-20T09:23:53;13.40;99.90
21563;DHT22;10942;47.894;11.424;2022-09-20T09:26:26;13.30;99.90
21563;DHT22;10942;47.894;11.424;2022-09-20T09:31:43;12.70;99.90
21563;DHT22;10942;47.894;11.424;2022-09-20T09:36:52;12.40;99.90
21563;DHT22;10942;47.894;11.424;2022-09-20T09:39:31;12.30;99.90
21563;DHT22;10942;47.894;11.424;2022-09-20T09:41:59;12.20;99.90
21563;DHT22;10942;47.894;11.424;2022-09-20T09:44:29;12.10;99.90
21563;DHT22;10942;47.894;11.424;2022-09-20T09:46:57;12.30;99.90
21563;DHT22;10942;47.894;11.424;2022-09-20T09:52:14;12.40;99.90
21563;DHT22;10942;47.894;11.424;2022-09-20T09:54:45;12.60;99.90
21563;DHT22;10942;47.894;11.424;2022-09-20T10:05:52;12.40;99.90
21563;DHT22;10942;47.894;11.424;2022-09-20T10:23:08;13.10;99.90
21563;DHT22;10942;47.894;11.424;2022-09-20T10:37:42;13.40;99.90
21563;DHT22;10942;47.894;11.424;2022-09-20T10:42:50;13.60;99.90
21563;DHT22;10942;47.894;11.424;2022-09-20T10:46:00;13.80;99.90
21563;DHT22;10942;47.894;11.424;2022-09-20T10:48:31;13.90;99.90
21563;DHT22;10942;47.894;11.424;2022-09-20T10:51:24;13.90;99.90
21563;DHT22;10942;47.894;11.424;2022-09-20T10:56:49;14.20;99.90
21563;DHT22;10942;47.894;11.424;2022-09-20T11:05:13;14.20;99.90
21563;DHT22;10942;47.894;11.424;2022-09-20T11:13:20;14.00;99.90
21563;DHT22;10942;47.894;11.424;2022-09-20T11:19:04;14.20;99.90
21563;DHT22;10942;47.894;11.424;2022-09-20T11:26:56;13.10;99.90
21563;DHT22;10942;47.894;11.424;2022-09-20T11:29:31;13.00;99.90
21563;DHT22;10942;47.894;11.424;2022-09-20T11:32:38;13.10;99.90
21563;DHT22;10942;47.894;11.424;2022-09-20T11:37:38;13.30;99.90
21563;DHT22;10942;47.894;11.424;2022-09-20T11:40:33;13.30;99.90
21563;DHT22;10942;47.894;11.424;2022-09-20T11:43:03;13.30;99.90
21563;DHT22;10942;47.894;11.424;2022-09-20T11:45:31;13.40;99.90
21563;DHT22;10942;47.894;11.424;2022-09-20T11:48:25;13.30;99.90
21563;DHT22;10942;47.894;11.424;2022-09-20T11:56:53;13.60;99.90
21563;DHT22;10942;47.894;11.424;2022-09-20T12:01:54;13.70;99.90
21563;DHT22;10942;47.894;11.424;2022-09-20T12:04:34;13.60;99.90
21563;DHT22;10942;47.894;11.424;2022-09-20T12:07:07;13.80;99.90
21563;DHT22;10942;47.894;11.424;2022-09-20T12:09:45;13.90;99.90
21563;DHT22;10942;47.894;11.424;2022-09-20T12:12:31;13.90;99.90
21563;DHT22;10942;47.894;11.424;2022-09-20T12:15:00;13.70;99.90
21563;DHT22;10942;47.894;11.424;2022-09-20T12:28:43;13.30;99.90
21563;DHT22;10942;47.894;11.424;2022-09-20T12:34:13;13.30;99.90
21563;DHT22;10942;47.894;11.424;2022-09-20T12:39:23;13.40;99.90
21563;DHT22;10942;47.894;11.424;2022-09-20T12:41:56;13.50;99.90
21563;DHT22;10942;47.894;11.424;2022-09-20T13:00:49;13.60;99.90
21563;DHT22;10942;47.894;11.424;2022-09-20T13:03:23;13.60;99.90
21563;DHT22;10942;47.894;11.424;2022-09-20T13:06:19;13.60;99.90
21563;DHT22;10942;47.894;11.424;2022-09-20T13:11:42;13.90;99.90
21563;DHT22;10942;47.894;11.424;2022-09-20T13:14:15;13.90;99.90
21563;DHT22;10942;47.894;11.424;2022-09-20T13:16:53;14.00;99.90
21563;DHT22;10942;47.894;11.424;2022-09-20T13:21:57;13.80;99.90
21563;DHT22;10942;47.894;11.424;2022-09-20T13:24:32;13.70;99.90
21563;DHT22;10942;47.894;11.424;2022-09-20T13:27:05;13.70;99.90
21563;DHT22;10942;47.894;11.424;2022-09-20T13:29:37;13.60;99.90
21563;DHT22;10942;47.894;11.424;2022-09-20T13:37:33;13.70;99.90
21563;DHT22;10942;47.894;11.424;2022-09-20T13:39:59;13.70;99.90
21563;DHT22;10942;47.894;11.424;2022-09-20T13:42:27;13.70;99.90
21563;DHT22;10942;47.894;11.424;2022-09-20T13:44:55;13.40;99.90
21563;DHT22;10942;47.894;11.424;2022-09-20T13:47:25;13.50;99.90
21563;DHT22;10942;47.894;11.424;2022-09-20T13:49:52;13.40;99.90
21563;DHT22;10942;47.894;11.424;2022-09-20T13:52:25;13.50;99.90
21563;DHT22;10942;47.894;11.424;2022-09-20T13:54:51;13.40;99.90
21563;DHT22;10942;47.894;11.424;2022-09-20T13:57:28;13.50;99.90
21563;DHT22;10942;47.894;11.424;2022-09-20T13:59:55;13.50;99.90
21563;DHT22;10942;47.894;11.424;2022-09-20T14:02:28;13.60;99.90
21563;DHT22;10942;47.894;11.424;2022-09-20T14:04:56;13.70;99.90
21563;DHT22;10942;47.894;11.424;2022-09-20T14:07:24;13.70;99.90
21563;DHT22;10942;47.894;11.424;2022-09-20T14:09:52;13.50;99.90
21563;DHT22;10942;47.894;11.424;2022-09-20T14:12:20;13.50;99.90
21563;DHT22;10942;47.894;11.424;2022-09-20T14:14:48;13.40;99.90
21563;DHT22;10942;47.894;11.424;2022-09-20T14:17:16;13.30;99.90
21563;DHT22;10942;47.894;11.424;2022-09-20T14:19:47;13.30;99.90
21563;DHT22;10942;47.894;11.424;2022-09-20T14:22:26;13.20;99.90
21563;DHT22;10942;47.894;11.424;2022-09-20T14:25:01;13.10;99.90
21563;DHT22;10942;47.894;11.424;2022-09-20T14:27:27;13.20;99.90
21563;DHT22;10942;47.894;11.424;2022-09-20T14:29:56;13.10;99.90
21563;DHT22;10942;47.894;11.424;2022-09-20T14:33:00;13.20;99.90
21563;DHT22;10942;47.894;11.424;2022-09-20T14:35:27;13.30;99.90
21563;DHT22;10942;47.894;11.424;2022-09-20T14:37:56;13.30;99.90
21563;DHT22;10942;47.894;11.424;2022-09-20T14:40:27;13.30;99.90
21563;DHT22;10942;47.894;11.424;2022-09-20T14:45:38;13.20;99.90
21563;DHT22;10942;47.894;11.424;2022-09-20T14:48:05;13.00;99.90
21563;DHT22;10942;47.894;11.424;2022-09-20T14:50:33;13.10;99.90
21563;DHT22;10942;47.894;11.424;2022-09-20T14:53:16;13.10;99.90
21563;DHT22;10942;47.894;11.424;2022-09-20T14:55:56;13.20;99.90
21563;DHT22;10942;47.894;11.424;2022-09-20T14:58:22;13.10;99.90
21563;DHT22;10942;47.894;11.424;2022-09-20T15:01:15;13.00;99.90
21563;DHT22;10942;47.894;11.424;2022-09-20T15:03:47;12.90;99.90
21563;DHT22;10942;47.894;11.424;2022-09-20T15:06:12;12.80;99.90
21563;DHT22;10942;47.894;11.424;2022-09-20T15:08:39;12.70;99.90
21563;DHT22;10942;47.894;11.424;2022-09-20T15:11:05;12.60;99.90
21563;DHT22;10942;47.894;11.424;2022-09-20T15:13:31;12.60;99.90
21563;DHT22;10942;47.894;11.424;2022-09-20T15:15:57;12.70;99.90
21563;DHT22;10942;47.894;11.424;2022-09-20T15:18:29;12.70;99.90
21563;DHT22;10942;47.894;11.424;2022-09-20T15:20:58;12.80;99.90
21563;DHT22;10942;47.894;11.424;2022-09-20T15:23:23;12.70;99.90
21563;DHT22;10942;47.894;11.424;2022-09-20T15:25:50;12.70;99.90
21563;DHT22;10942;47.894;11.424;2022-09-20T15:28:17;12.70;99.90
21563;DHT22;10942;47.894;11.424;2022-09-20T15:30:48;12.70;99.90
21563;DHT22;10942;47.894;11.424;2022-09-20T15:33:15;12.70;99.90
21563;DHT22;10942;47.894;11.424;2022-09-20T15:35:41;12.60;99.90
21563;DHT22;10942;47.894;11.424;2022-09-20T15:38:07;12.60;99.90
21563;DHT22;10942;47.894;11.424;2022-09-20T15:40:39;12.60;99.90
21563;DHT22;10942;47.894;11.424;2022-09-20T15:43:05;12.50;99.90
21563;DHT22;10942;47.894;11.424;2022-09-20T15:45:34;12.50;99.90
21563;DHT22;10942;47.894;11.424;2022-09-20T15:48:00;12.40;99.90
21563;DHT22;10942;47.894;11.424;2022-09-20T15:50:27;12.30;99.90
21563;DHT22;10942;47.894;11.424;2022-09-20T15:52:54;12.40;99.90
21563;DHT22;10942;47.894;11.424;2022-09-20T15:55:20;12.40;99.90
21563;DHT22;10942;47.894;11.424;2022-09-20T15:57:46;12.30;99.90
21563;DHT22;10942;47.894;11.424;2022-09-20T16:00:14;12.20;99.90
21563;DHT22;10942;47.894;11.424;2022-09-20T16:02:42;12.20;99.90
21563;DHT22;10942;47.894;11.424;2022-09-20T16:05:08;12.10;99.90
21563;DHT22;10942;47.894;11.424;2022-09-20T16:07:35;12.10;99.90
21563;DHT22;10942;47.894;11.424;2022-09-20T16:10:01;12.10;99.90
21563;DHT22;10942;47.894;11.424;2022-09-20T16:12:27;12.00;99.90
21563;DHT22;10942;47.894;11.424;2022-09-20T16:14:52;12.10;99.90
21563;DHT22;10942;47.894;11.424;2022-09-20T16:17:18;12.10;99.90
21563;DHT22;10942;47.894;11.424;2022-09-20T16:20:04;12.00;99.90
21563;DHT22;10942;47.894;11.424;2022-09-20T16:22:30;12.00;99.90
21563;DHT22;10942;47.894;11.424;2022-09-20T16:24:58;12.00;99.90
21563;DHT22;10942;47.894;11.424;2022-09-20T16:27:25;12.00;99.90
21563;DHT22;10942;47.894;11.424;2022-09-20T16:29:51;12.10;99.90
21563;DHT22;10942;47.894;11.424;2022-09-20T16:32:17;12.00;99.90
21563;DHT22;10942;47.894;11.424;2022-09-20T16:34:43;12.10;99.90
21563;DHT22;10942;47.894;11.424;2022-09-20T16:37:10;12.00;99.90
21563;DHT22;10942;47.894;11.424;2022-09-20T16:39:38;12.00;99.90
21563;DHT22;10942;47.894;11.424;2022-09-20T16:42:07;12.00;99.90
21563;DHT22;10942;47.894;11.424;2022-09-20T16:44:36;11.90;99.90
21563;DHT22;10942;47.894;11.424;2022-09-20T16:47:03;11.90;99.90
21563;DHT22;10942;47.894;11.424;2022-09-20T16:49:32;11.90;99.90
21563;DHT22;10942;47.894;11.424;2022-09-20T16:51:59;11.80;99.90
21563;DHT22;10942;47.894;11.424;2022-09-20T16:54:25;11.80;99.90
21563;DHT22;10942;47.894;11.424;2022-09-20T16:56:51;11.70;99.90
21563;DHT22;10942;47.894;11.424;2022-09-20T16:59:18;11.70;99.90
21563;DHT22;10942;47.894;11.424;2022-09-20T17:01:46;11.60;99.90
21563;DHT22;10942;47.894;11.424;2022-09-20T17:04:13;11.60;99.90
21563;DHT22;10942;47.894;11.424;2022-09-20T17:06:40;11.60;99.90
21563;DHT22;10942;47.894;11.424;2022-09-20T17:09:08;11.60;99.90
21563;DHT22;10942;47.894;11.424;2022-09-20T17:11:52;11.50;99.90
21563;DHT22;10942;47.894;11.424;2022-09-20T17:14:19;11.50;99.90
21563;DHT22;10942;47.894;11.424;2022-09-20T17:16:46;11.50;99.90
21563;DHT22;10942;47.894;11.424;2022-09-20T17:19:14;11.40;99.90
21563;DHT22;10942;47.894;11.424;2022-09-20T17:21:42;11.40;99.90
21563;DHT22;10942;47.894;11.424;2022-09-20T17:24:09;11.40;99.90
21563;DHT22;10942;47.894;11.424;2022-09-20T17:26:38;11.40;99.90
21563;DHT22;10942;47.894;11.424;2022-09-20T17:29:07;11.40;99.90
21563;DHT22;10942;47.894;11.424;2022-09-20T17:31:39;11.30;99.90
21563;DHT22;10942;47.894;11.424;2022-09-20T17:34:09;11.30;99.90
21563;DHT22;10942;47.894;11.424;2022-09-20T17:36:40;11.30;99.90
21563;DHT22;10942;47.894;11.424;2022-09-20T17:39:07;11.20;99.90
21563;DHT22;10942;47.894;11.424;2022-09-20T17:41:37;11.10;99.90
21563;DHT22;10942;47.894;11.424;2022-09-20T17:44:03;11.10;99.90
21563;DHT22;10942;47.894;11.424;2022-09-20T17:46:33;11.00;99.90
21563;DHT22;10942;47.894;11.424;2022-09-20T17:49:01;11.00;99.90
21563;DHT22;10942;47.894;11.424;2022-09-20T17:51:30;11.00;99.90
21563;DHT22;10942;47.894;11.424;2022-09-20T17:53:56;10.80;99.90
21563;DHT22;10942;47.894;11.424;2022-09-20T17:56:23;10.80;99.90
21563;DHT22;10942;47.894;11.424;2022-09-20T17:58:53;10.70;99.90
21563;DHT22;10942;47.894;11.424;2022-09-20T18:01:20;10.70;99.90
21563;DHT22;10942;47.894;11.424;2022-09-20T18:03:47;10.80;99.90
21563;DHT22;10942;47.894;11.424;2022-09-20T18:06:40;10.80;99.90
21563;DHT22;10942;47.894;11.424;2022-09-20T18:09:12;10.80;99.90
21563;DHT22;10942;47.894;11.424;2022-09-20T18:11:40;10.60;99.90
21563;DHT22;10942;47.894;11.424;2022-09-20T18:14:08;10.60;99.90
21563;DHT22;10942;47.894;11.424;2022-09-20T18:16:38;10.60;99.90
21563;DHT22;10942;47.894;11.424;2022-09-20T18:19:05;10.60;99.90
21563;DHT22;10942;47.894;11.424;2022-09-20T18:21:33;10.60;99.90
21563;DHT22;10942;47.894;11.424;2022-09-20T18:24:00;10.60;99.90
21563;DHT22;10942;47.894;11.424;2022-09-20T18:26:28;10.40;99.90
21563;DHT22;10942;47.894;11.424;2022-09-20T18:29:09;10.40;99.90
21563;DHT22;10942;47.894;11.424;2022-09-20T18:31:41;10.40;99.90
21563;DHT22;10942;47.894;11.424;2022-09-20T18:34:14;10.40;99.90
21563;DHT22;10942;47.894;11.424;2022-09-20T18:36:44;10.40;99.90
21563;DHT22;10942;47.894;11.424;2022-09-20T18:39:10;10.40;99.90
21563;DHT22;10942;47.894;11.424;2022-09-20T18:41:38;10.40;99.90
21563;DHT22;10942;47.894;11.424;2022-09-20T18:44:05;10.40;99.90
21563;DHT22;10942;47.894;11.424;2022-09-20T18:46:33;10.40;99.90
21563;DHT22;10942;47.894;11.424;2022-09-20T18:49:05;10.20;99.90
21563;DHT22;10942;47.894;11.424;2022-09-20T18:51:30;10.20;99.90
21563;DHT22;10942;47.894;11.424;2022-09-20T18:53:57;10.10;99.90
21563;DHT22;10942;47.894;11.424;2022-09-20T18:56:25;10.10;99.90
21563;DHT22;10942;47.894;11.424;2022-09-20T18:58:54;10.00;99.90
21563;DHT22;10942;47.894;11.424;2022-09-20T19:01:45;10.00;99.90
21563;DHT22;10942;47.894;11.424;2022-09-20T19:04:44;10.00;99.90
21563;DHT22;10942;47.894;11.424;2022-09-20T19:10:21;9.90;99.90
21563;DHT22;10942;47.894;11.424;2022-09-20T19:13:04;9.90;99.90
21563;DHT22;10942;47.894;11.424;2022-09-20T19:15:43;9.90;99.90
21563;DHT22;10942;47.894;11.424;2022-09-20T19:18:39;9.80;99.90
21563;DHT22;10942;47.894;11.424;2022-09-20T19:26:36;9.60;99.90
21563;DHT22;10942;47.894;11.424;2022-09-20T19:29:20;9.60;99.90
21563;DHT22;10942;47.894;11.424;2022-09-20T19:31:48;9.60;99.90
21563;DHT22;10942;47.894;11.424;2022-09-20T19:34:20;9.50;99.90
21563;DHT22;10942;47.894;11.424;2022-09-20T19:45:47;9.50;99.90
21563;DHT22;10942;47.894;11.424;2022-09-20T19:51:02;9.40;99.90
21563;DHT22;10942;47.894;11.424;2022-09-20T19:53:28;9.40;99.90
21563;DHT22;10942;47.894;11.424;2022-09-20T19:56:22;9.40;99.90
21563;DHT22;10942;47.894;11.424;2022-09-20T19:58:43;9.40;99.90
21563;DHT22;10942;47.894;11.424;2022-09-20T20:01:10;9.40;99.90
21563;DHT22;10942;47.894;11.424;2022-09-20T20:03:36;9.40;99.90
21563;DHT22;10942;47.894;11.424;2022-09-20T20:08:54;9.40;99.90
21563;DHT22;10942;47.894;11.424;2022-09-20T20:11:40;9.50;99.90
21563;DHT22;10942;47.894;11.424;2022-09-20T20:22:25;9.40;99.90
21563;DHT22;10942;47.894;11.424;2022-09-20T20:24:54;9.40;99.90
21563;DHT22;10942;47.894;11.424;2022-09-20T20:27:21;9.40;99.90
21563;DHT22;10942;47.894;11.424;2022-09-20T20:29:47;9.40;99.90
21563;DHT22;10942;47.894;11.424;2022-09-20T20:32:14;9.30;99.90
21563;DHT22;10942;47.894;11.424;2022-09-20T20:34:40;9.30;99.90
21563;DHT22;10942;47.894;11.424;2022-09-20T20:37:06;9.30;99.90
21563;DHT22;10942;47.894;11.424;2022-09-20T20:39:32;9.40;99.90
21563;DHT22;10942;47.894;11.424;2022-09-20T20:41:59;9.40;99.90
21563;DHT22;10942;47.894;11.424;2022-09-20T20:44:29;9.40;99.90
21563;DHT22;10942;47.894;11.424;2022-09-20T20:47:02;9.40;99.90
21563;DHT22;10942;47.894;11.424;2022-09-20T20:49:28;9.40;99.90
21563;DHT22;10942;47.894;11.424;2022-09-20T20:51:53;9.40;99.90
21563;DHT22;10942;47.894;11.424;2022-09-20T20:54:20;9.40;99.90
21563;DHT22;10942;47.894;11.424;2022-09-20T20:56:46;9.40;99.90
21563;DHT22;10942;47.894;11.424;2022-09-20T20:59:12;9.40;99.90
21563;DHT22;10942;47.894;11.424;2022-09-20T21:01:39;9.40;99.90
21563;DHT22;10942;47.894;11.424;2022-09-20T21:04:10;9.40;99.90
21563;DHT22;10942;47.894;11.424;2022-09-20T21:06:37;9.40;99.90
21563;DHT22;10942;47.894;11.424;2022-09-20T21:09:05;9.40;99.90
21563;DHT22;10942;47.894;11.424;2022-09-20T21:11:34;9.50;99.90
21563;DHT22;10942;47.894;11.424;2022-09-20T21:14:02;9.50;99.90
21563;DHT22;10942;47.894;11.424;2022-09-20T21:16:36;9.40;99.90
21563;DHT22;10942;47.894;11.424;2022-09-20T21:19:03;9.40;99.90
21563;DHT22;10942;47.894;11.424;2022-09-20T21:21:37;9.30;99.90
21563;DHT22;10942;47.894;11.424;2022-09-20T21:24:05;9.30;99.90
21563;DHT22;10942;47.894;11.424;2022-09-20T21:26:32;9.20;99.90
21563;DHT22;10942;47.894;11.424;2022-09-20T21:28:59;9.30;99.90